Time;durP1;ratioP1;P1;durP2;ratioP2;P2;SDS_P1;SDS_P2;PMS_P1;PMS_P2;Temp;Humidity;BMP_temperature;BMP_pressure;BME280_temperature;BME280_humidity;BME280_pressure;Samples;Min_cycle;Max_cycle;Signal;HPM_P1;HPM_P2
2022/07/26 00:00:22;;;;;;;8.82;5.57;;;21.10;99.90;;;;;;5092415;28;20024;-75
2022/07/26 00:02:48;;;;;;;12.75;7.32;;;21.10;99.90;;;;;;5092532;28;20020;-75
2022/07/26 00:05:13;;;;;;;8.15;5.63;;;21.20;99.90;;;;;;5092501;28;20028;-74
2022/07/26 00:07:39;;;;;;;9.02;6.72;;;21.20;99.90;;;;;;5096239;28;20024;-74
2022/07/26 00:10:05;;;;;;;9.65;7.05;;;21.10;99.90;;;;;;5095801;28;20363;-74
2022/07/26 00:12:32;;;;;;;9.73;6.03;;;21.20;99.90;;;;;;5096025;28;20091;-75
2022/07/26 00:14:58;;;;;;;14.73;7.03;;;21.20;99.90;;;;;;5095880;28;20040;-75
2022/07/26 00:17:23;;;;;;;9.95;5.85;;;21.40;99.90;;;;;;5095808;28;20032;-74
2022/07/26 00:19:49;;;;;;;7.50;5.47;;;21.50;99.90;;;;;;5095887;28;20469;-75
2022/07/26 00:22:33;;;;;;;8.98;5.05;;;21.40;99.90;;;;;;5095802;28;20545;-75
2022/07/26 00:24:58;;;;;;;7.97;5.25;;;21.10;99.90;;;;;;5095911;28;20500;-74
2022/07/26 00:27:24;;;;;;;8.05;5.13;;;21.00;99.90;;;;;;5096090;28;20028;-74
2022/07/26 00:29:50;;;;;;;7.15;3.97;;;21.00;99.90;;;;;;5095682;28;20024;-74
2022/07/26 00:32:15;;;;;;;6.20;4.18;;;20.90;99.90;;;;;;5095537;28;20028;-75
2022/07/26 00:34:41;;;;;;;7.88;4.28;;;21.20;99.90;;;;;;5095561;28;20032;-74
2022/07/26 00:37:07;;;;;;;9.30;5.05;;;21.40;99.90;;;;;;5095496;28;20020;-74
2022/07/26 00:39:32;;;;;;;7.85;5.28;;;21.30;99.90;;;;;;5095523;28;20090;-74
2022/07/26 00:41:58;;;;;;;8.45;4.70;;;21.40;99.90;;;;;;5095816;28;20020;-74
2022/07/26 00:44:23;;;;;;;7.85;5.03;;;21.50;99.90;;;;;;5095458;28;20028;-74
2022/07/26 00:46:49;;;;;;;7.10;4.45;;;21.50;99.90;;;;;;5095468;28;20024;-74
2022/07/26 00:49:15;;;;;;;9.68;5.00;;;21.10;99.90;;;;;;5095469;28;20089;-74
2022/07/26 00:51:41;;;;;;;6.57;4.38;;;21.00;99.90;;;;;;5095377;28;20103;-74
2022/07/26 00:54:06;;;;;;;7.32;4.68;;;21.00;99.90;;;;;;5095059;28;20145;-75
2022/07/26 00:56:33;;;;;;;7.35;4.90;;;21.10;99.90;;;;;;5095317;28;20025;-75
2022/07/26 00:58:59;;;;;;;8.55;5.15;;;20.90;99.90;;;;;;5095208;28;20024;-74
2022/07/26 01:01:25;;;;;;;7.22;4.80;;;20.90;99.90;;;;;;5095352;28;20531;-75
2022/07/26 01:03:52;;;;;;;7.85;4.70;;;20.60;99.90;;;;;;5095145;28;20033;-75
2022/07/26 01:06:19;;;;;;;8.38;4.95;;;20.50;99.90;;;;;;5094768;28;20023;-74
2022/07/26 01:08:45;;;;;;;8.10;4.88;;;20.60;99.90;;;;;;5095742;28;20452;-74
2022/07/26 01:11:11;;;;;;;7.55;4.68;;;20.60;99.90;;;;;;5095120;28;20073;-74
2022/07/26 01:13:44;;;;;;;10.98;5.43;;;20.70;99.90;;;;;;5094926;28;20535;-74
2022/07/26 01:16:09;;;;;;;7.88;4.95;;;20.80;99.90;;;;;;5094875;28;20028;-74
2022/07/26 01:18:35;;;;;;;6.10;4.43;;;20.90;99.90;;;;;;5094777;28;20054;-74
2022/07/26 01:21:02;;;;;;;7.90;4.85;;;20.40;99.90;;;;;;5094871;28;20020;-75
2022/07/26 01:23:30;;;;;;;10.65;5.35;;;20.40;99.90;;;;;;5094963;28;20052;-74
2022/07/26 01:25:55;;;;;;;8.27;5.28;;;20.50;99.90;;;;;;5094752;28;20389;-74
2022/07/26 01:28:21;;;;;;;9.57;5.40;;;20.60;99.90;;;;;;5094813;28;20037;-75
2022/07/26 01:30:48;;;;;;;9.38;5.40;;;20.90;99.90;;;;;;5094575;28;20117;-75
2022/07/26 01:33:14;;;;;;;8.27;4.85;;;20.90;99.90;;;;;;5094781;28;20071;-75
2022/07/26 01:35:39;;;;;;;7.00;4.65;;;20.60;99.90;;;;;;5094519;28;20073;-74
2022/07/26 01:38:05;;;;;;;8.73;5.38;;;20.70;99.90;;;;;;5094527;28;20122;-74
2022/07/26 01:40:31;;;;;;;11.02;5.20;;;20.80;99.90;;;;;;5094601;28;20031;-75
2022/07/26 01:42:57;;;;;;;10.65;5.25;;;20.80;99.90;;;;;;5094581;28;20077;-75
2022/07/26 01:45:22;;;;;;;10.02;5.25;;;20.70;99.90;;;;;;5094468;28;20027;-74
2022/07/26 01:47:49;;;;;;;9.13;5.00;;;20.70;99.90;;;;;;5094490;28;20020;-75
2022/07/26 01:50:16;;;;;;;7.10;5.03;;;20.60;99.90;;;;;;5094172;28;20020;-74
2022/07/26 01:52:41;;;;;;;8.50;5.32;;;21.00;99.90;;;;;;5093985;28;20097;-74
2022/07/26 01:55:07;;;;;;;8.45;5.72;;;20.80;99.90;;;;;;5093958;28;20466;-74
2022/07/26 01:57:33;;;;;;;9.98;5.70;;;20.90;99.90;;;;;;5094076;28;20374;-75
2022/07/26 01:59:59;;;;;;;7.30;4.82;;;20.90;99.90;;;;;;5094192;28;20100;-75
2022/07/26 02:02:24;;;;;;;8.73;5.63;;;21.00;99.90;;;;;;5094256;28;20080;-75
2022/07/26 02:05:00;;;;;;;7.40;5.20;;;21.10;99.90;;;;;;5094042;28;20024;-74
2022/07/26 02:07:30;;;;;;;10.25;5.13;;;20.90;99.90;;;;;;5093818;28;20031;-74
2022/07/26 02:09:57;;;;;;;9.07;5.78;;;20.60;99.90;;;;;;5093774;28;20031;-75
2022/07/26 02:12:22;;;;;;;8.48;5.00;;;20.40;99.90;;;;;;5093480;28;20020;-75
2022/07/26 02:14:48;;;;;;;7.43;5.10;;;20.40;99.90;;;;;;5093783;28;20039;-74
2022/07/26 02:17:14;;;;;;;8.88;5.07;;;20.50;99.90;;;;;;5093549;28;20024;-75
2022/07/26 02:19:39;;;;;;;7.25;4.93;;;20.70;99.90;;;;;;5093662;28;20050;-75
2022/07/26 02:22:05;;;;;;;9.60;4.85;;;20.70;99.90;;;;;;5093239;28;20027;-74
2022/07/26 02:24:31;;;;;;;9.02;5.32;;;20.60;99.90;;;;;;5093517;28;20036;-74
2022/07/26 02:26:58;;;;;;;8.05;4.47;;;20.60;99.90;;;;;;5093591;28;20032;-74
2022/07/26 02:29:25;;;;;;;8.52;5.22;;;20.40;99.90;;;;;;5092846;28;20024;-74
2022/07/26 02:31:51;;;;;;;8.05;4.80;;;20.40;99.90;;;;;;5092987;28;20028;-74
2022/07/26 02:34:17;;;;;;;8.48;5.55;;;20.50;99.90;;;;;;5093163;28;20156;-74
2022/07/26 02:36:43;;;;;;;8.07;5.15;;;20.70;99.90;;;;;;5093263;28;20032;-74
2022/07/26 02:39:09;;;;;;;7.88;4.90;;;20.60;99.90;;;;;;5093197;28;20026;-75
2022/07/26 02:41:34;;;;;;;8.95;5.60;;;20.60;99.90;;;;;;5093200;28;20032;-74
2022/07/26 02:44:00;;;;;;;11.98;6.15;;;20.70;99.90;;;;;;5093396;28;20024;-74
2022/07/26 02:46:25;;;;;;;8.38;5.55;;;20.50;99.90;;;;;;5093033;28;20035;-74
2022/07/26 02:48:51;;;;;;;9.85;5.65;;;20.60;99.90;;;;;;5093335;28;20032;-75
2022/07/26 02:51:17;;;;;;;11.18;5.70;;;20.80;99.90;;;;;;5093370;28;20043;-74
2022/07/26 02:53:43;;;;;;;11.23;5.43;;;20.70;99.90;;;;;;5093218;28;20039;-75
2022/07/26 02:56:09;;;;;;;11.20;5.90;;;20.80;99.90;;;;;;5091983;28;20032;-75
2022/07/26 02:58:36;;;;;;;10.75;5.68;;;20.80;99.90;;;;;;5093189;28;20081;-74
2022/07/26 03:01:02;;;;;;;9.27;5.47;;;20.70;99.90;;;;;;5092691;28;20470;-73
2022/07/26 03:03:28;;;;;;;10.27;5.43;;;20.60;99.90;;;;;;5082390;28;20036;-73
2022/07/26 03:05:53;;;;;;;9.38;5.60;;;20.60;99.90;;;;;;5066785;28;20040;-73
2022/07/26 03:08:19;;;;;;;7.55;5.32;;;20.60;99.90;;;;;;5067078;28;20032;-73
2022/07/26 03:10:45;;;;;;;9.20;5.28;;;20.70;99.90;;;;;;5066761;28;20082;-73
2022/07/26 03:13:11;;;;;;;8.20;4.95;;;20.60;99.90;;;;;;5066530;28;20041;-73
2022/07/26 03:15:37;;;;;;;7.65;5.22;;;20.70;99.90;;;;;;5066467;28;20028;-73
2022/07/26 03:18:02;;;;;;;9.73;5.55;;;20.70;99.90;;;;;;5064558;28;20508;-72
2022/07/26 03:20:28;;;;;;;8.52;6.00;;;20.90;99.90;;;;;;5064059;28;20063;-73
2022/07/26 03:22:54;;;;;;;10.43;5.25;;;20.90;99.90;;;;;;5065368;28;20274;-73
2022/07/26 03:25:19;;;;;;;11.27;6.30;;;20.60;99.90;;;;;;5067525;28;20167;-73
2022/07/26 03:27:45;;;;;;;9.35;5.85;;;20.50;99.90;;;;;;5067036;28;20024;-73
2022/07/26 03:30:12;;;;;;;8.88;5.40;;;20.70;99.90;;;;;;5066983;28;20028;-73
2022/07/26 03:32:37;;;;;;;8.73;5.40;;;20.70;99.90;;;;;;5067076;28;20024;-73
2022/07/26 03:35:04;;;;;;;12.80;5.35;;;20.50;99.90;;;;;;5067704;28;20043;-73
2022/07/26 03:37:30;;;;;;;8.13;4.63;;;20.50;99.90;;;;;;5067211;28;20024;-73
2022/07/26 03:39:55;;;;;;;9.05;5.60;;;20.30;99.90;;;;;;5068135;28;20410;-73
2022/07/26 03:42:21;;;;;;;11.02;6.13;;;20.40;99.90;;;;;;5070934;28;20056;-73
2022/07/26 03:44:47;;;;;;;14.93;4.75;;;20.60;99.90;;;;;;5071066;28;20020;-73
2022/07/26 03:47:12;;;;;;;7.78;5.18;;;20.20;99.90;;;;;;5071148;28;20040;-73
2022/07/26 03:49:38;;;;;;;9.70;5.70;;;20.10;99.90;;;;;;5070933;28;20029;-73
2022/07/26 03:52:04;;;;;;;10.40;6.13;;;20.30;99.90;;;;;;5071027;28;20032;-73
2022/07/26 03:54:29;;;;;;;10.60;5.30;;;20.30;99.90;;;;;;5070699;28;20143;-73
2022/07/26 03:56:55;;;;;;;9.13;6.18;;;20.30;99.90;;;;;;5069365;28;20036;-73
2022/07/26 03:59:22;;;;;;;10.57;5.32;;;20.30;99.90;;;;;;5067829;28;20028;-73
2022/07/26 04:01:49;;;;;;;7.72;5.05;;;20.30;99.90;;;;;;5068440;28;20422;-73
2022/07/26 04:04:19;;;;;;;10.52;5.57;;;20.30;99.90;;;;;;5068152;28;20074;-73
2022/07/26 04:06:46;;;;;;;8.48;5.43;;;20.30;99.90;;;;;;5067294;28;20111;-73
2022/07/26 04:09:12;;;;;;;9.00;5.75;;;20.50;99.90;;;;;;5067352;28;20142;-73
2022/07/26 04:11:39;;;;;;;10.23;5.45;;;20.40;99.90;;;;;;5067572;28;20082;-73
2022/07/26 04:14:05;;;;;;;8.75;6.38;;;20.40;99.90;;;;;;5067033;28;20059;-73
2022/07/26 04:16:31;;;;;;;9.48;5.05;;;20.40;99.90;;;;;;5067374;28;20029;-73
2022/07/26 04:18:57;;;;;;;9.52;4.75;;;20.50;99.90;;;;;;5067217;28;20067;-73
2022/07/26 04:21:23;;;;;;;9.13;5.90;;;20.60;99.90;;;;;;5067309;28;20099;-73
2022/07/26 04:23:49;;;;;;;7.88;5.43;;;20.70;99.90;;;;;;5066926;28;20100;-73
2022/07/26 04:26:14;;;;;;;9.43;5.70;;;20.50;99.90;;;;;;5066753;28;20036;-73
2022/07/26 04:28:41;;;;;;;9.85;5.80;;;20.60;99.90;;;;;;5066448;28;20033;-73
2022/07/26 04:31:07;;;;;;;10.02;6.13;;;20.70;99.90;;;;;;5066915;28;20485;-73
2022/07/26 04:33:33;;;;;;;10.02;5.32;;;20.60;99.90;;;;;;5066753;28;20268;-73
2022/07/26 04:36:00;;;;;;;8.43;5.55;;;20.70;99.90;;;;;;5066480;28;20224;-73
2022/07/26 04:38:26;;;;;;;9.75;5.38;;;20.70;99.90;;;;;;5066813;28;20047;-73
2022/07/26 04:40:52;;;;;;;9.82;6.20;;;20.80;99.90;;;;;;5066496;28;20965;-73
2022/07/26 04:43:18;;;;;;;12.13;5.70;;;20.80;99.90;;;;;;5066876;28;20475;-73
2022/07/26 04:45:44;;;;;;;8.63;5.60;;;20.90;99.90;;;;;;5066714;28;20051;-73
2022/07/26 04:48:10;;;;;;;8.35;5.38;;;20.70;99.90;;;;;;5066955;28;20624;-73
2022/07/26 04:50:36;;;;;;;10.40;5.72;;;20.50;99.90;;;;;;5066832;28;20261;-73
2022/07/26 04:53:02;;;;;;;9.98;5.63;;;20.40;99.90;;;;;;5066391;28;20108;-73
2022/07/26 04:55:28;;;;;;;9.95;5.18;;;20.30;99.90;;;;;;5066175;28;20259;-73
2022/07/26 04:57:54;;;;;;;11.55;5.05;;;20.40;99.90;;;;;;5066880;28;20650;-73
2022/07/26 05:00:23;;;;;;;9.52;5.57;;;20.30;99.90;;;;;;5066404;28;20030;-73
2022/07/26 05:02:50;;;;;;;11.65;5.78;;;20.50;99.90;;;;;;5066755;28;20024;-73
2022/07/26 05:05:16;;;;;;;17.02;6.07;;;20.70;99.90;;;;;;5066709;28;20021;-73
2022/07/26 05:07:44;;;;;;;11.65;6.40;;;20.70;99.90;;;;;;5066685;28;20379;-73
2022/07/26 05:10:11;;;;;;;10.02;6.20;;;20.80;99.90;;;;;;5066135;28;20082;-73
2022/07/26 05:12:37;;;;;;;11.13;5.78;;;21.00;99.90;;;;;;5064391;28;20420;-73
2022/07/26 05:15:03;;;;;;;9.63;5.30;;;21.00;99.90;;;;;;5065903;28;20029;-73
2022/07/26 05:17:29;;;;;;;9.05;5.07;;;21.10;99.90;;;;;;5064972;28;20029;-73
2022/07/26 05:19:54;;;;;;;9.45;5.53;;;21.20;99.90;;;;;;5065792;28;20074;-73
2022/07/26 05:22:20;;;;;;;8.07;5.05;;;21.30;99.90;;;;;;5065976;28;20073;-73
2022/07/26 05:24:46;;;;;;;11.73;5.50;;;21.40;99.90;;;;;;5065918;28;20032;-73
2022/07/26 05:27:11;;;;;;;10.45;5.82;;;21.50;99.90;;;;;;5065987;28;20032;-73
2022/07/26 05:29:37;;;;;;;10.23;4.95;;;21.40;99.90;;;;;;5065931;28;20551;-73
2022/07/26 05:32:03;;;;;;;9.05;5.30;;;21.50;99.90;;;;;;5065693;28;20039;-73
2022/07/26 05:34:28;;;;;;;6.57;4.57;;;21.60;99.90;;;;;;5065966;28;20032;-73
2022/07/26 05:36:54;;;;;;;10.38;5.47;;;21.80;99.90;;;;;;5065743;28;20048;-73
2022/07/26 05:39:20;;;;;;;7.20;4.95;;;21.90;99.90;;;;;;5065429;28;20036;-73
2022/07/26 05:41:45;;;;;;;14.00;6.30;;;21.80;99.90;;;;;;5065751;28;20398;-73
2022/07/26 05:44:11;;;;;;;8.85;4.75;;;21.70;99.90;;;;;;5065463;28;20069;-73
2022/07/26 05:46:37;;;;;;;7.35;5.20;;;21.60;99.90;;;;;;5065728;28;20029;-73
2022/07/26 05:49:03;;;;;;;9.63;5.82;;;21.60;99.90;;;;;;5066091;28;20025;-73
2022/07/26 05:51:29;;;;;;;8.45;5.32;;;21.70;99.90;;;;;;5065655;28;20029;-73
2022/07/26 05:53:55;;;;;;;7.03;4.65;;;21.70;99.90;;;;;;5065049;28;20112;-73
2022/07/26 05:56:21;;;;;;;8.88;5.15;;;21.60;99.90;;;;;;5065418;28;20029;-73
2022/07/26 05:58:47;;;;;;;8.82;5.70;;;21.40;99.90;;;;;;5065377;28;20444;-73
2022/07/26 06:01:13;;;;;;;8.80;5.22;;;21.50;99.90;;;;;;5065500;28;20064;-73
2022/07/26 06:03:38;;;;;;;14.77;6.05;;;21.60;99.90;;;;;;5064588;28;20514;-73
2022/07/26 06:06:04;;;;;;;15.27;5.80;;;21.60;99.90;;;;;;5065126;28;20502;-73
2022/07/26 06:08:30;;;;;;;9.13;5.53;;;21.40;99.90;;;;;;5064868;28;20074;-73
2022/07/26 06:10:57;;;;;;;8.95;5.75;;;21.70;99.90;;;;;;5064841;28;20379;-73
2022/07/26 06:13:23;;;;;;;7.65;5.45;;;21.60;99.90;;;;;;5064812;28;20055;-73
2022/07/26 06:15:49;;;;;;;10.20;5.50;;;21.50;99.90;;;;;;5065005;28;20032;-73
2022/07/26 06:18:14;;;;;;;9.93;5.88;;;21.70;99.90;;;;;;5064950;28;20036;-73
2022/07/26 06:20:42;;;;;;;8.27;5.57;;;21.80;99.90;;;;;;5065093;28;20020;-73
2022/07/26 06:23:09;;;;;;;11.02;5.78;;;21.90;99.90;;;;;;5064760;28;20467;-73
2022/07/26 06:25:34;;;;;;;9.60;5.63;;;21.80;99.90;;;;;;5065075;28;20110;-73
2022/07/26 06:28:09;;;;;;;8.52;4.93;;;21.90;99.90;;;;;;5064803;28;20029;-73
2022/07/26 06:30:36;;;;;;;8.68;5.72;;;22.00;99.90;;;;;;5064995;28;20028;-73
2022/07/26 06:33:02;;;;;;;8.45;5.47;;;22.10;99.90;;;;;;5066421;28;20024;-73
2022/07/26 06:35:29;;;;;;;9.90;5.47;;;22.10;99.90;;;;;;5067888;28;20482;-73
2022/07/26 06:37:56;;;;;;;8.88;4.93;;;22.10;99.90;;;;;;5067755;28;20420;-73
2022/07/26 06:40:21;;;;;;;9.82;5.10;;;22.10;99.90;;;;;;5068124;28;20235;-73
2022/07/26 06:42:47;;;;;;;8.00;5.38;;;22.20;99.90;;;;;;5067896;28;20107;-73
2022/07/26 06:45:13;;;;;;;7.90;4.70;;;22.20;99.90;;;;;;5067806;28;20056;-73
2022/07/26 06:47:39;;;;;;;7.72;5.05;;;22.20;99.90;;;;;;5068053;28;20029;-73
2022/07/26 06:50:05;;;;;;;8.23;6.60;;;22.30;99.90;;;;;;5068013;28;20029;-73
2022/07/26 06:52:31;;;;;;;9.15;5.68;;;22.40;99.90;;;;;;5067707;28;20025;-73
2022/07/26 06:54:58;;;;;;;7.18;5.45;;;22.40;99.90;;;;;;5067269;28;20115;-73
2022/07/26 06:57:24;;;;;;;8.38;4.97;;;22.50;99.90;;;;;;5067413;28;20020;-73
2022/07/26 06:59:50;;;;;;;12.65;5.85;;;22.70;99.90;;;;;;5067301;28;20024;-71
2022/07/26 07:02:16;;;;;;;9.00;5.70;;;23.10;99.90;;;;;;5067473;28;20040;-71
2022/07/26 07:04:41;;;;;;;9.50;6.00;;;23.10;99.90;;;;;;5067411;28;20028;-70
2022/07/26 07:07:07;;;;;;;7.43;5.18;;;23.20;99.90;;;;;;5067208;28;20028;-71
2022/07/26 07:09:34;;;;;;;11.88;4.75;;;23.50;99.90;;;;;;5067257;28;20100;-71
2022/07/26 07:12:02;;;;;;;10.68;5.28;;;23.50;99.90;;;;;;5066990;28;20048;-71
2022/07/26 07:14:28;;;;;;;8.00;4.88;;;23.70;99.90;;;;;;5066677;28;20048;-70
2022/07/26 07:16:55;;;;;;;10.77;5.57;;;23.90;99.90;;;;;;5067611;28;20029;-71
2022/07/26 07:19:21;;;;;;;9.02;5.32;;;24.10;99.90;;;;;;5066888;28;20052;-70
2022/07/26 07:21:47;;;;;;;9.95;5.15;;;24.30;99.90;;;;;;5067600;28;20445;-71
2022/07/26 07:24:12;;;;;;;10.48;4.90;;;24.60;99.90;;;;;;5067590;28;20028;-71
2022/07/26 07:26:38;;;;;;;8.45;4.75;;;25.00;99.90;;;;;;5067399;28;20029;-71
2022/07/26 07:29:04;;;;;;;8.23;5.47;;;25.30;99.90;;;;;;5067073;28;20081;-71
2022/07/26 07:31:29;;;;;;;7.07;4.80;;;26.00;99.70;;;;;;5067184;28;20482;-71
2022/07/26 07:33:55;;;;;;;8.05;4.47;;;26.40;99.60;;;;;;5065279;28;20040;-71
2022/07/26 07:36:21;;;;;;;9.18;4.97;;;27.30;98.40;;;;;;5064055;28;20025;-71
2022/07/26 07:38:48;;;;;;;6.95;5.35;;;27.90;96.20;;;;;;5065311;28;20035;-71
2022/07/26 07:41:13;;;;;;;10.32;4.28;;;28.90;95.80;;;;;;5067057;28;20025;-70
2022/07/26 07:43:39;;;;;;;8.77;4.45;;;29.60;94.80;;;;;;5067434;28;20017;-71
2022/07/26 07:46:05;;;;;;;7.50;4.88;;;29.80;94.50;;;;;;5067328;28;20020;-71
2022/07/26 07:48:31;;;;;;;6.88;4.30;;;30.50;93.80;;;;;;5066582;28;20470;-72
2022/07/26 07:50:57;;;;;;;8.02;4.72;;;30.50;92.80;;;;;;5067022;28;20363;-70
2022/07/26 07:53:22;;;;;;;9.68;4.63;;;30.90;92.70;;;;;;5067368;28;20028;-71
2022/07/26 07:55:48;;;;;;;6.72;4.18;;;31.20;92.80;;;;;;5067109;28;20059;-71
2022/07/26 07:58:15;;;;;;;7.68;5.28;;;31.00;92.10;;;;;;5067064;28;20502;-70
2022/07/26 08:00:41;;;;;;;8.85;5.28;;;30.70;91.50;;;;;;5067123;28;20098;-71
2022/07/26 08:03:06;;;;;;;6.40;4.30;;;31.20;92.30;;;;;;5066473;28;20102;-70
2022/07/26 08:05:32;;;;;;;6.80;4.20;;;31.40;91.50;;;;;;5066620;28;20270;-69
2022/07/26 08:07:58;;;;;;;8.60;4.40;;;30.60;90.90;;;;;;5066799;28;20035;-70
2022/07/26 08:10:24;;;;;;;7.50;4.90;;;29.20;94.00;;;;;;5066910;28;20020;-70
